sensor_id;sensor_type;location;lat;lon;timestamp;pressure;altitude;pressure_sealevel;temperature;humidity
65534;BME280;53640;55.838;37.184;2024-03-07T00:01:19;99858.00;;;-7.84;35.06
65534;BME280;53640;55.838;37.184;2024-03-07T00:06:56;99854.88;;;-7.90;35.60
65534;BME280;53640;55.838;37.184;2024-03-07T00:09:35;99927.44;;;-7.42;36.26
65534;BME280;53640;55.838;37.184;2024-03-07T00:12:11;99809.59;;;-8.10;35.74
65534;BME280;53640;55.838;37.184;2024-03-07T00:14:52;99879.00;;;-7.68;35.59
65534;BME280;53640;55.838;37.184;2024-03-07T00:17:37;99870.44;;;-7.72;35.24
65534;BME280;53640;55.838;37.184;2024-03-07T00:20:05;99843.19;;;-7.85;35.16
65534;BME280;53640;55.838;37.184;2024-03-07T00:22:38;99963.13;;;-7.08;35.09
65534;BME280;53640;55.838;37.184;2024-03-07T00:25:08;99839.78;;;-7.87;35.00
65534;BME280;53640;55.838;37.184;2024-03-07T00:27:41;99843.88;;;-7.81;35.16
65534;BME280;53640;55.838;37.184;2024-03-07T00:30:08;99823.28;;;-7.89;35.03
65534;BME280;53640;55.838;37.184;2024-03-07T00:32:35;99912.88;;;-7.33;34.93
65534;BME280;53640;55.838;37.184;2024-03-07T00:35:06;99921.66;;;-7.33;34.74
65534;BME280;53640;55.838;37.184;2024-03-07T00:37:35;99905.38;;;-7.39;34.57
65534;BME280;53640;55.838;37.184;2024-03-07T00:40:03;99848.69;;;-7.74;34.57
65534;BME280;53640;55.838;37.184;2024-03-07T00:42:31;99899.34;;;-7.41;34.62
65534;BME280;53640;55.838;37.184;2024-03-07T00:45:04;99861.19;;;-7.63;34.74
65534;BME280;53640;55.838;37.184;2024-03-07T00:47:38;99854.44;;;-7.67;34.81
65534;BME280;53640;55.838;37.184;2024-03-07T00:50:07;99937.38;;;-7.17;34.87
65534;BME280;53640;55.838;37.184;2024-03-07T00:52:40;99911.59;;;-7.40;35.05
65534;BME280;53640;55.838;37.184;2024-03-07T00:55:08;99828.84;;;-7.79;34.79
65534;BME280;53640;55.838;37.184;2024-03-07T00:57:36;99940.19;;;-7.20;34.97
65534;BME280;53640;55.838;37.184;2024-03-07T01:00:05;99835.66;;;-7.91;35.15
65534;BME280;53640;55.838;37.184;2024-03-07T01:02:37;99906.56;;;-7.45;35.21
65534;BME280;53640;55.838;37.184;2024-03-07T01:05:05;99863.38;;;-7.85;35.35
65534;BME280;53640;55.838;37.184;2024-03-07T01:07:36;99848.91;;;-7.93;35.16
65534;BME280;53640;55.838;37.184;2024-03-07T01:10:04;99830.16;;;-8.02;35.05
65534;BME280;53640;55.838;37.184;2024-03-07T01:12:35;99866.03;;;-7.71;35.17
65534;BME280;53640;55.838;37.184;2024-03-07T01:15:02;99918.69;;;-7.42;35.10
65534;BME280;53640;55.838;37.184;2024-03-07T01:17:30;99794.63;;;-8.24;34.98
65534;BME280;53640;55.838;37.184;2024-03-07T01:19:57;99891.41;;;-7.56;34.71
65534;BME280;53640;55.838;37.184;2024-03-07T01:22:24;99815.63;;;-8.08;34.74
65534;BME280;53640;55.838;37.184;2024-03-07T01:24:51;99892.34;;;-7.57;35.03
65534;BME280;53640;55.838;37.184;2024-03-07T01:27:17;99848.34;;;-7.83;34.79
65534;BME280;53640;55.838;37.184;2024-03-07T01:29:44;99943.47;;;-7.16;35.20
65534;BME280;53640;55.838;37.184;2024-03-07T01:32:11;99831.25;;;-7.90;34.96
65534;BME280;53640;55.838;37.184;2024-03-07T01:34:41;99817.53;;;-7.96;34.74
65534;BME280;53640;55.838;37.184;2024-03-07T01:37:10;99953.81;;;-7.13;34.84
65534;BME280;53640;55.838;37.184;2024-03-07T01:39:37;99862.22;;;-7.65;34.81
65534;BME280;53640;55.838;37.184;2024-03-07T01:42:08;99788.31;;;-8.05;34.65
65534;BME280;53640;55.838;37.184;2024-03-07T01:44:35;99872.16;;;-7.56;34.76
65534;BME280;53640;55.838;37.184;2024-03-07T01:47:02;99766.41;;;-8.20;34.83
65534;BME280;53640;55.838;37.184;2024-03-07T01:49:30;99819.06;;;-7.91;34.64
65534;BME280;53640;55.838;37.184;2024-03-07T01:51:58;99796.69;;;-7.99;34.37
65534;BME280;53640;55.838;37.184;2024-03-07T01:54:26;99995.13;;;-6.85;34.60
65534;BME280;53640;55.838;37.184;2024-03-07T01:56:54;99830.13;;;-7.86;34.58
65534;BME280;53640;55.838;37.184;2024-03-07T01:59:22;99781.47;;;-8.08;34.26
65534;BME280;53640;55.838;37.184;2024-03-07T02:01:48;99851.03;;;-7.69;34.36
65534;BME280;53640;55.838;37.184;2024-03-07T02:04:18;99743.09;;;-8.40;34.32
65534;BME280;53640;55.838;37.184;2024-03-07T02:06:45;99875.25;;;-7.64;34.32
65534;BME280;53640;55.838;37.184;2024-03-07T02:09:11;99827.94;;;-7.94;34.25
65534;BME280;53640;55.838;37.184;2024-03-07T02:11:38;99857.75;;;-7.79;34.18
65534;BME280;53640;55.838;37.184;2024-03-07T02:14:05;99772.19;;;-8.29;34.24
65534;BME280;53640;55.838;37.184;2024-03-07T02:16:32;99853.38;;;-7.95;34.35
65534;BME280;53640;55.838;37.184;2024-03-07T02:19:21;99837.53;;;-8.09;34.39
65534;BME280;53640;55.838;37.184;2024-03-07T02:21:48;99803.03;;;-8.33;34.50
65534;BME280;53640;55.838;37.184;2024-03-07T02:24:14;99854.59;;;-8.00;34.61
65534;BME280;53640;55.838;37.184;2024-03-07T02:26:42;99915.78;;;-7.68;34.55
65534;BME280;53640;55.838;37.184;2024-03-07T02:29:09;99828.31;;;-8.16;34.46
65534;BME280;53640;55.838;37.184;2024-03-07T02:31:37;99803.63;;;-8.44;34.64
65534;BME280;53640;55.838;37.184;2024-03-07T02:34:05;99826.75;;;-8.34;34.53
65534;BME280;53640;55.838;37.184;2024-03-07T02:36:34;99812.34;;;-8.43;34.82
65534;BME280;53640;55.838;37.184;2024-03-07T02:39:00;99793.00;;;-8.56;34.71
65534;BME280;53640;55.838;37.184;2024-03-07T02:41:28;99788.75;;;-8.59;34.67
65534;BME280;53640;55.838;37.184;2024-03-07T02:43:56;99850.44;;;-8.36;34.77
65534;BME280;53640;55.838;37.184;2024-03-07T02:46:22;99813.31;;;-8.60;34.91
65534;BME280;53640;55.838;37.184;2024-03-07T02:48:49;99814.88;;;-8.57;34.94
65534;BME280;53640;55.838;37.184;2024-03-07T02:51:16;99779.69;;;-8.85;35.08
65534;BME280;53640;55.838;37.184;2024-03-07T02:53:42;99810.16;;;-8.67;34.80
65534;BME280;53640;55.838;37.184;2024-03-07T02:56:09;99851.97;;;-8.32;34.97
65534;BME280;53640;55.838;37.184;2024-03-07T02:58:35;99809.47;;;-8.54;35.01
65534;BME280;53640;55.838;37.184;2024-03-07T03:01:02;99931.25;;;-7.78;34.99
65534;BME280;53640;55.838;37.184;2024-03-07T03:03:30;99836.38;;;-8.35;34.96
65534;BME280;53640;55.838;37.184;2024-03-07T03:05:59;99773.75;;;-8.73;34.83
65534;BME280;53640;55.838;37.184;2024-03-07T03:08:28;99854.00;;;-8.21;34.92
65534;BME280;53640;55.838;37.184;2024-03-07T03:10:55;99775.78;;;-8.62;34.75
65534;BME280;53640;55.838;37.184;2024-03-07T03:13:24;99962.38;;;-7.56;34.86
65534;BME280;53640;55.838;37.184;2024-03-07T03:15:51;99957.34;;;-7.59;34.93
65534;BME280;53640;55.838;37.184;2024-03-07T03:18:17;99930.56;;;-7.81;34.62
65534;BME280;53640;55.838;37.184;2024-03-07T03:20:45;99932.25;;;-7.80;34.78
65534;BME280;53640;55.838;37.184;2024-03-07T03:23:15;99964.81;;;-7.67;35.18
65534;BME280;53640;55.838;37.184;2024-03-07T03:25:42;99934.31;;;-7.85;35.03
65534;BME280;53640;55.838;37.184;2024-03-07T03:28:09;99972.09;;;-7.72;35.30
65534;BME280;53640;55.838;37.184;2024-03-07T03:30:40;99915.84;;;-8.00;35.21
65534;BME280;53640;55.838;37.184;2024-03-07T03:33:07;99954.97;;;-7.79;35.22
65534;BME280;53640;55.838;37.184;2024-03-07T03:35:34;99888.31;;;-8.24;35.44
65534;BME280;53640;55.838;37.184;2024-03-07T03:38:01;99908.72;;;-8.13;35.49
65534;BME280;53640;55.838;37.184;2024-03-07T03:40:28;99877.13;;;-8.44;35.59
65534;BME280;53640;55.838;37.184;2024-03-07T03:42:55;99923.13;;;-8.21;35.62
65534;BME280;53640;55.838;37.184;2024-03-07T03:45:22;99936.00;;;-8.16;35.67
65534;BME280;53640;55.838;37.184;2024-03-07T03:47:51;99954.81;;;-8.08;35.58
65534;BME280;53640;55.838;37.184;2024-03-07T03:50:19;99951.75;;;-8.16;35.39
65534;BME280;53640;55.838;37.184;2024-03-07T03:52:46;99898.81;;;-8.40;35.56
65534;BME280;53640;55.838;37.184;2024-03-07T03:55:12;99960.50;;;-8.15;35.47
65534;BME280;53640;55.838;37.184;2024-03-07T03:57:40;99868.72;;;-8.66;35.70
65534;BME280;53640;55.838;37.184;2024-03-07T04:00:09;99886.63;;;-8.57;35.83
65534;BME280;53640;55.838;37.184;2024-03-07T04:02:41;99924.81;;;-8.35;35.90
65534;BME280;53640;55.838;37.184;2024-03-07T04:05:12;99865.69;;;-8.74;35.77
65534;BME280;53640;55.838;37.184;2024-03-07T04:07:39;99916.59;;;-8.45;36.10
65534;BME280;53640;55.838;37.184;2024-03-07T04:10:06;99908.28;;;-8.53;36.00
65534;BME280;53640;55.838;37.184;2024-03-07T04:12:37;99881.41;;;-8.74;36.11
65534;BME280;53640;55.838;37.184;2024-03-07T04:15:09;99935.81;;;-8.45;36.13
65534;BME280;53640;55.838;37.184;2024-03-07T04:17:38;99865.31;;;-8.84;36.30
65534;BME280;53640;55.838;37.184;2024-03-07T04:20:06;99913.03;;;-8.60;36.42
65534;BME280;53640;55.838;37.184;2024-03-07T04:22:34;99915.66;;;-8.60;36.44
65534;BME280;53640;55.838;37.184;2024-03-07T04:25:01;99861.34;;;-8.91;36.26
65534;BME280;53640;55.838;37.184;2024-03-07T04:27:30;99865.50;;;-8.87;36.48
65534;BME280;53640;55.838;37.184;2024-03-07T04:29:57;99935.97;;;-8.48;36.46
65534;BME280;53640;55.838;37.184;2024-03-07T04:32:23;99884.81;;;-8.72;36.38
65534;BME280;53640;55.838;37.184;2024-03-07T04:34:50;99918.78;;;-8.53;36.30
65534;BME280;53640;55.838;37.184;2024-03-07T04:37:16;99873.63;;;-8.76;36.48
65534;BME280;53640;55.838;37.184;2024-03-07T04:39:43;99878.00;;;-8.76;36.47
65534;BME280;53640;55.838;37.184;2024-03-07T04:42:10;99852.97;;;-8.82;36.39
65534;BME280;53640;55.838;37.184;2024-03-07T04:44:37;99922.28;;;-8.37;36.59
65534;BME280;53640;55.838;37.184;2024-03-07T04:47:04;99857.03;;;-8.76;36.52
65534;BME280;53640;55.838;37.184;2024-03-07T04:49:32;99902.84;;;-8.50;36.41
65534;BME280;53640;55.838;37.184;2024-03-07T04:52:00;99918.38;;;-8.30;36.42
65534;BME280;53640;55.838;37.184;2024-03-07T04:54:28;99876.53;;;-8.49;36.36
65534;BME280;53640;55.838;37.184;2024-03-07T04:56:55;99921.09;;;-8.15;36.51
65534;BME280;53640;55.838;37.184;2024-03-07T04:59:22;99918.97;;;-8.09;36.54
65534;BME280;53640;55.838;37.184;2024-03-07T05:01:50;99855.88;;;-8.39;36.37
65534;BME280;53640;55.838;37.184;2024-03-07T05:04:17;99907.19;;;-8.02;36.46
65534;BME280;53640;55.838;37.184;2024-03-07T05:06:45;99873.84;;;-8.15;36.27
65534;BME280;53640;55.838;37.184;2024-03-07T05:09:15;99859.84;;;-8.16;36.40
65534;BME280;53640;55.838;37.184;2024-03-07T05:11:52;99847.06;;;-8.22;36.19
65534;BME280;53640;55.838;37.184;2024-03-07T05:14:20;99923.09;;;-7.73;36.46
65534;BME280;53640;55.838;37.184;2024-03-07T05:16:48;99840.16;;;-8.09;36.32
65534;BME280;53640;55.838;37.184;2024-03-07T05:19:35;99912.53;;;-7.57;36.17
65534;BME280;53640;55.838;37.184;2024-03-07T05:22:02;99924.13;;;-7.46;36.17
65534;BME280;53640;55.838;37.184;2024-03-07T05:24:32;99852.50;;;-7.79;36.10
65534;BME280;53640;55.838;37.184;2024-03-07T05:26:59;99922.50;;;-7.32;35.92
65534;BME280;53640;55.838;37.184;2024-03-07T05:29:26;99798.09;;;-8.07;35.89
65534;BME280;53640;55.838;37.184;2024-03-07T05:32:22;99923.28;;;-7.16;35.71
65534;BME280;53640;55.838;37.184;2024-03-07T05:34:51;99881.16;;;-7.30;35.63
65534;BME280;53640;55.838;37.184;2024-03-07T05:37:19;99899.69;;;-7.03;35.41
65534;BME280;53640;55.838;37.184;2024-03-07T05:39:50;99890.25;;;-6.91;35.41
65534;BME280;53640;55.838;37.184;2024-03-07T05:42:19;99907.09;;;-6.65;35.06
65534;BME280;53640;55.838;37.184;2024-03-07T05:44:45;99845.59;;;-6.93;35.13
65534;BME280;53640;55.838;37.184;2024-03-07T05:47:12;99892.09;;;-6.51;34.94
65534;BME280;53640;55.838;37.184;2024-03-07T05:49:43;99774.78;;;-7.10;34.98
65534;BME280;53640;55.838;37.184;2024-03-07T05:52:09;99799.16;;;-6.80;34.91
65534;BME280;53640;55.838;37.184;2024-03-07T05:54:36;99875.09;;;-6.18;34.73
65534;BME280;53640;55.838;37.184;2024-03-07T05:57:03;99894.50;;;-5.92;34.61
65534;BME280;53640;55.838;37.184;2024-03-07T05:59:30;99885.16;;;-5.83;34.40
65534;BME280;53640;55.838;37.184;2024-03-07T06:01:58;99873.25;;;-5.76;34.01
65534;BME280;53640;55.838;37.184;2024-03-07T06:04:25;99886.69;;;-5.66;33.88
65534;BME280;53640;55.838;37.184;2024-03-07T06:06:53;99879.56;;;-5.52;33.43
65534;BME280;53640;55.838;37.184;2024-03-07T06:09:20;99880.66;;;-5.41;33.38
65534;BME280;53640;55.838;37.184;2024-03-07T06:11:49;99852.25;;;-5.51;33.45
65534;BME280;53640;55.838;37.184;2024-03-07T06:14:16;99800.84;;;-5.70;33.12
65534;BME280;53640;55.838;37.184;2024-03-07T06:16:43;99860.50;;;-5.30;32.82
65534;BME280;53640;55.838;37.184;2024-03-07T06:19:10;99887.00;;;-5.06;32.70
65534;BME280;53640;55.838;37.184;2024-03-07T06:21:39;99857.66;;;-5.14;32.97
65534;BME280;53640;55.838;37.184;2024-03-07T06:24:07;99869.38;;;-5.05;32.69
65534;BME280;53640;55.838;37.184;2024-03-07T06:26:36;99830.09;;;-5.10;32.42
65534;BME280;53640;55.838;37.184;2024-03-07T06:29:26;99866.41;;;-4.75;32.56
65534;BME280;53640;55.838;37.184;2024-03-07T06:31:58;99878.13;;;-4.54;32.15
65534;BME280;53640;55.838;37.184;2024-03-07T06:34:25;99858.56;;;-4.51;32.24
65534;BME280;53640;55.838;37.184;2024-03-07T06:36:55;99873.84;;;-4.31;31.97
65534;BME280;53640;55.838;37.184;2024-03-07T06:39:21;99816.19;;;-4.49;32.01
65534;BME280;53640;55.838;37.184;2024-03-07T06:41:48;99867.16;;;-3.99;31.59
65534;BME280;53640;55.838;37.184;2024-03-07T06:44:14;99856.78;;;-3.90;31.49
65534;BME280;53640;55.838;37.184;2024-03-07T06:46:41;99865.28;;;-3.62;31.14
65534;BME280;53640;55.838;37.184;2024-03-07T06:49:12;99811.16;;;-3.69;31.11
65534;BME280;53640;55.838;37.184;2024-03-07T06:51:38;99820.00;;;-3.46;30.88
65534;BME280;53640;55.838;37.184;2024-03-07T06:54:05;99776.59;;;-3.44;30.88
65534;BME280;53640;55.838;37.184;2024-03-07T06:56:31;99789.38;;;-3.15;30.59
65534;BME280;53640;55.838;37.184;2024-03-07T06:59:03;99695.16;;;-3.63;30.41
65534;BME280;53640;55.838;37.184;2024-03-07T07:01:31;99841.63;;;-2.50;29.89
65534;BME280;53640;55.838;37.184;2024-03-07T07:03:59;99844.50;;;-2.42;29.53
65534;BME280;53640;55.838;37.184;2024-03-07T07:06:29;99848.34;;;-2.35;29.23
65534;BME280;53640;55.838;37.184;2024-03-07T07:08:55;99841.47;;;-2.26;29.56
65534;BME280;53640;55.838;37.184;2024-03-07T07:11:22;99843.16;;;-2.14;29.50
65534;BME280;53640;55.838;37.184;2024-03-07T07:13:48;99841.31;;;-2.02;29.66
65534;BME280;53640;55.838;37.184;2024-03-07T07:16:15;99825.50;;;-2.03;29.21
65534;BME280;53640;55.838;37.184;2024-03-07T07:18:44;99829.94;;;-1.93;29.51
65534;BME280;53640;55.838;37.184;2024-03-07T07:21:11;99809.72;;;-2.05;29.06
65534;BME280;53640;55.838;37.184;2024-03-07T07:23:41;99775.72;;;-2.11;29.32
65534;BME280;53640;55.838;37.184;2024-03-07T07:26:08;99815.19;;;-1.86;29.63
65534;BME280;53640;55.838;37.184;2024-03-07T07:28:35;99838.38;;;-1.67;29.54
65534;BME280;53640;55.838;37.184;2024-03-07T07:31:04;99753.69;;;-2.12;29.46
65534;BME280;53640;55.838;37.184;2024-03-07T07:33:30;99775.06;;;-1.92;29.78
65534;BME280;53640;55.838;37.184;2024-03-07T07:35:57;99814.44;;;-1.55;29.41
65534;BME280;53640;55.838;37.184;2024-03-07T07:38:24;99827.41;;;-1.41;29.45
65534;BME280;53640;55.838;37.184;2024-03-07T07:40:53;99828.44;;;-1.32;29.46
65534;BME280;53640;55.838;37.184;2024-03-07T07:43:19;99772.38;;;-1.60;29.52
65534;BME280;53640;55.838;37.184;2024-03-07T07:45:46;99814.50;;;-1.25;29.70
65534;BME280;53640;55.838;37.184;2024-03-07T07:48:13;99825.97;;;-1.03;29.41
65534;BME280;53640;55.838;37.184;2024-03-07T07:50:43;99801.88;;;-1.12;29.52
65534;BME280;53640;55.838;37.184;2024-03-07T07:53:10;99834.19;;;-0.86;29.58
65534;BME280;53640;55.838;37.184;2024-03-07T07:55:36;99795.81;;;-0.93;29.34
65534;BME280;53640;55.838;37.184;2024-03-07T07:58:05;99761.94;;;-1.00;29.05
65534;BME280;53640;55.838;37.184;2024-03-07T08:00:32;99811.59;;;-0.61;28.81
65534;BME280;53640;55.838;37.184;2024-03-07T08:03:11;99808.84;;;-0.49;29.05
65534;BME280;53640;55.838;37.184;2024-03-07T08:05:42;99771.34;;;-0.56;28.98
65534;BME280;53640;55.838;37.184;2024-03-07T08:08:13;99796.44;;;-0.29;28.76
65534;BME280;53640;55.838;37.184;2024-03-07T08:10:42;99789.47;;;-0.11;28.54
65534;BME280;53640;55.838;37.184;2024-03-07T08:13:15;99798.31;;;0.09;28.67
65534;BME280;53640;55.838;37.184;2024-03-07T08:15:42;99801.69;;;0.30;28.62
65534;BME280;53640;55.838;37.184;2024-03-07T08:18:08;99722.94;;;-0.01;28.35
65534;BME280;53640;55.838;37.184;2024-03-07T08:20:37;99730.75;;;0.29;28.18
65534;BME280;53640;55.838;37.184;2024-03-07T08:23:05;99766.56;;;0.74;27.85
65534;BME280;53640;55.838;37.184;2024-03-07T08:25:31;99720.59;;;0.62;27.87
65534;BME280;53640;55.838;37.184;2024-03-07T08:28:03;99731.03;;;0.93;27.82
65534;BME280;53640;55.838;37.184;2024-03-07T08:30:31;99655.03;;;0.79;27.52
65534;BME280;53640;55.838;37.184;2024-03-07T08:32:58;99748.75;;;1.67;27.07
65534;BME280;53640;55.838;37.184;2024-03-07T08:35:45;99717.06;;;1.81;26.45
65534;BME280;53640;55.838;37.184;2024-03-07T08:38:12;99667.84;;;1.84;26.27
65534;BME280;53640;55.838;37.184;2024-03-07T08:40:38;99735.41;;;2.64;25.90
65534;BME280;53640;55.838;37.184;2024-03-07T08:43:05;99697.34;;;2.70;25.51
65534;BME280;53640;55.838;37.184;2024-03-07T08:45:33;99722.66;;;3.26;25.71
65534;BME280;53640;55.838;37.184;2024-03-07T08:48:02;99764.53;;;3.86;24.77
65534;BME280;53640;55.838;37.184;2024-03-07T08:50:30;99720.19;;;4.00;24.24
65534;BME280;53640;55.838;37.184;2024-03-07T08:52:57;99717.19;;;4.19;23.78
65534;BME280;53640;55.838;37.184;2024-03-07T08:55:25;99759.69;;;4.71;23.68
65534;BME280;53640;55.838;37.184;2024-03-07T08:57:51;99755.22;;;5.11;23.52
65534;BME280;53640;55.838;37.184;2024-03-07T09:00:19;99751.34;;;5.30;22.90
65534;BME280;53640;55.838;37.184;2024-03-07T09:02:54;99688.97;;;5.28;22.61
65534;BME280;53640;55.838;37.184;2024-03-07T09:05:24;99733.50;;;6.00;22.61
65534;BME280;53640;55.838;37.184;2024-03-07T09:07:53;99748.84;;;6.37;22.10
65534;BME280;53640;55.838;37.184;2024-03-07T09:10:19;99699.63;;;6.36;21.65
65534;BME280;53640;55.838;37.184;2024-03-07T09:12:49;99748.94;;;6.81;21.36
65534;BME280;53640;55.838;37.184;2024-03-07T09:15:16;99682.13;;;6.55;20.97
65534;BME280;53640;55.838;37.184;2024-03-07T09:17:43;99726.34;;;7.05;21.04
65534;BME280;53640;55.838;37.184;2024-03-07T09:20:10;99704.81;;;7.05;20.49
65534;BME280;53640;55.838;37.184;2024-03-07T09:22:44;99675.56;;;7.02;20.40
65534;BME280;53640;55.838;37.184;2024-03-07T09:25:11;99728.03;;;7.57;20.73
65534;BME280;53640;55.838;37.184;2024-03-07T09:27:39;99692.09;;;7.50;20.11
65534;BME280;53640;55.838;37.184;2024-03-07T09:30:07;99712.41;;;7.68;20.15
65534;BME280;53640;55.838;37.184;2024-03-07T09:32:41;99716.81;;;7.90;20.24
65534;BME280;53640;55.838;37.184;2024-03-07T09:35:10;99720.66;;;8.24;20.01
65534;BME280;53640;55.838;37.184;2024-03-07T09:37:41;99698.56;;;8.35;19.79
65534;BME280;53640;55.838;37.184;2024-03-07T09:40:08;99693.94;;;8.50;19.52
65534;BME280;53640;55.838;37.184;2024-03-07T09:42:45;99712.47;;;8.88;19.24
65534;BME280;53640;55.838;37.184;2024-03-07T09:45:16;99720.72;;;9.21;19.15
65534;BME280;53640;55.838;37.184;2024-03-07T09:47:46;99708.56;;;9.39;18.76
65534;BME280;53640;55.838;37.184;2024-03-07T09:50:17;99716.16;;;9.56;18.92
65534;BME280;53640;55.838;37.184;2024-03-07T09:52:48;99702.75;;;9.42;18.61
65534;BME280;53640;55.838;37.184;2024-03-07T09:55:18;99688.84;;;9.45;18.56
65534;BME280;53640;55.838;37.184;2024-03-07T10:01:45;99609.38;;;9.19;18.64
65534;BME280;53640;55.838;37.184;2024-03-07T10:04:49;99711.28;;;10.06;17.93
65534;BME280;53640;55.838;37.184;2024-03-07T10:21:49;99562.47;;;11.05;16.58
65534;BME280;53640;55.838;37.184;2024-03-07T10:25:07;99596.78;;;11.56;16.74
65534;BME280;53640;55.838;37.184;2024-03-07T10:28:03;99540.69;;;11.56;16.34
65534;BME280;53640;55.838;37.184;2024-03-07T10:30:41;99558.03;;;11.80;16.19
65534;BME280;53640;55.838;37.184;2024-03-07T10:33:07;99545.78;;;11.96;16.16
65534;BME280;53640;55.838;37.184;2024-03-07T10:35:36;99557.84;;;12.25;15.74
65534;BME280;53640;55.838;37.184;2024-03-07T10:38:05;99577.63;;;12.51;15.90
65534;BME280;53640;55.838;37.184;2024-03-07T10:40:33;99555.00;;;12.38;15.78
65534;BME280;53640;55.838;37.184;2024-03-07T10:43:07;99591.91;;;12.64;15.56
65534;BME280;53640;55.838;37.184;2024-03-07T10:46:18;99534.63;;;12.47;15.61
65534;BME280;53640;55.838;37.184;2024-03-07T11:56:36;99499.63;;;13.25;14.06
65534;BME280;53640;55.838;37.184;2024-03-07T11:59:02;99546.63;;;13.55;13.95
65534;BME280;53640;55.838;37.184;2024-03-07T12:01:30;99555.75;;;13.31;14.19
65534;BME280;53640;55.838;37.184;2024-03-07T12:03:57;99536.78;;;13.12;14.28
65534;BME280;53640;55.838;37.184;2024-03-07T12:10:02;99604.63;;;13.37;14.33
65534;BME280;53640;55.838;37.184;2024-03-07T12:13:16;99550.69;;;13.04;14.67
65534;BME280;53640;55.838;37.184;2024-03-07T12:16:02;99549.00;;;13.22;14.54
65534;BME280;53640;55.838;37.184;2024-03-07T12:18:30;99467.81;;;12.83;14.36
65534;BME280;53640;55.838;37.184;2024-03-07T12:22:35;99550.38;;;13.42;14.51
65534;BME280;53640;55.838;37.184;2024-03-07T12:26:01;99589.41;;;13.78;14.33
65534;BME280;53640;55.838;37.184;2024-03-07T12:33:24;99491.25;;;13.38;14.28
65534;BME280;53640;55.838;37.184;2024-03-07T12:36:49;99453.22;;;13.08;14.67
65534;BME280;53640;55.838;37.184;2024-03-07T12:39:25;99438.13;;;13.12;14.46
65534;BME280;53640;55.838;37.184;2024-03-07T12:42:15;99496.47;;;13.39;14.18
65534;BME280;53640;55.838;37.184;2024-03-07T12:44:50;99404.84;;;12.86;14.48
65534;BME280;53640;55.838;37.184;2024-03-07T12:50:45;99442.16;;;13.09;14.83
65534;BME280;53640;55.838;37.184;2024-03-07T12:56:28;99439.38;;;12.98;14.39
65534;BME280;53640;55.838;37.184;2024-03-07T12:59:11;99428.09;;;12.82;14.60
65534;BME280;53640;55.838;37.184;2024-03-07T13:05:33;99474.41;;;13.17;14.61
65534;BME280;53640;55.838;37.184;2024-03-07T13:14:10;99391.06;;;12.69;14.92
65534;BME280;53640;55.838;37.184;2024-03-07T13:17:06;99493.94;;;13.26;14.66
65534;BME280;53640;55.838;37.184;2024-03-07T13:23:18;99381.22;;;12.57;14.62
65534;BME280;53640;55.838;37.184;2024-03-07T13:30:03;99509.47;;;13.37;14.75
65534;BME280;53640;55.838;37.184;2024-03-07T13:32:35;99432.63;;;12.70;14.43
65534;BME280;53640;55.838;37.184;2024-03-07T13:35:03;99419.88;;;12.40;14.60
65534;BME280;53640;55.838;37.184;2024-03-07T13:37:54;99530.53;;;13.12;14.84
65534;BME280;53640;55.838;37.184;2024-03-07T13:40:26;99396.19;;;12.29;14.58
65534;BME280;53640;55.838;37.184;2024-03-07T13:46:28;99530.53;;;13.12;15.09
65534;BME280;53640;55.838;37.184;2024-03-07T13:49:14;99426.66;;;12.31;15.02
65534;BME280;53640;55.838;37.184;2024-03-07T13:51:44;99397.91;;;11.93;15.08
65534;BME280;53640;55.838;37.184;2024-03-07T13:59:24;99517.06;;;12.50;15.20
65534;BME280;53640;55.838;37.184;2024-03-07T14:36:13;99514.75;;;8.38;18.21
65534;BME280;53640;55.838;37.184;2024-03-07T14:59:23;99509.91;;;5.37;22.74
65534;BME280;53640;55.838;37.184;2024-03-07T15:01:50;99464.31;;;4.83;22.73
65534;BME280;53640;55.838;37.184;2024-03-07T15:04:16;99484.97;;;4.82;22.93
65534;BME280;53640;55.838;37.184;2024-03-07T15:06:43;99517.47;;;4.79;23.31
65534;BME280;53640;55.838;37.184;2024-03-07T15:09:10;99465.75;;;4.39;23.75
65534;BME280;53640;55.838;37.184;2024-03-07T15:11:37;99496.44;;;4.37;23.67
65534;BME280;53640;55.838;37.184;2024-03-07T15:14:03;99504.84;;;4.26;23.60
65534;BME280;53640;55.838;37.184;2024-03-07T15:16:35;99513.38;;;4.21;24.20
65534;BME280;53640;55.838;37.184;2024-03-07T15:19:05;99514.75;;;4.09;24.29
65534;BME280;53640;55.838;37.184;2024-03-07T15:21:34;99504.63;;;3.88;24.42
65534;BME280;53640;55.838;37.184;2024-03-07T15:24:06;99491.09;;;3.65;24.71
65534;BME280;53640;55.838;37.184;2024-03-07T15:26:33;99464.16;;;3.34;25.27
65534;BME280;53640;55.838;37.184;2024-03-07T15:29:01;99455.16;;;3.10;25.51
65534;BME280;53640;55.838;37.184;2024-03-07T15:31:27;99507.81;;;3.26;25.97
65534;BME280;53640;55.838;37.184;2024-03-07T15:33:54;99523.34;;;3.14;26.21
65534;BME280;53640;55.838;37.184;2024-03-07T15:36:21;99506.63;;;2.96;26.27
65534;BME280;53640;55.838;37.184;2024-03-07T15:38:48;99487.19;;;2.69;26.48
65534;BME280;53640;55.838;37.184;2024-03-07T15:41:15;99512.91;;;2.70;26.89
65534;BME280;53640;55.838;37.184;2024-03-07T15:43:41;99504.84;;;2.54;26.84
65534;BME280;53640;55.838;37.184;2024-03-07T15:46:12;99526.41;;;2.52;27.16
65534;BME280;53640;55.838;37.184;2024-03-07T15:48:40;99446.03;;;1.95;27.67
65534;BME280;53640;55.838;37.184;2024-03-07T15:51:07;99481.16;;;2.09;27.52
65534;BME280;53640;55.838;37.184;2024-03-07T15:53:37;99524.13;;;2.23;27.71
65534;BME280;53640;55.838;37.184;2024-03-07T15:56:04;99509.00;;;2.06;27.74
65534;BME280;53640;55.838;37.184;2024-03-07T15:58:33;99523.03;;;2.08;28.15
65534;BME280;53640;55.838;37.184;2024-03-07T16:01:00;99495.72;;;1.88;28.39
65534;BME280;53640;55.838;37.184;2024-03-07T16:03:26;99508.88;;;1.81;28.55
65534;BME280;53640;55.838;37.184;2024-03-07T16:05:54;99484.56;;;1.59;28.48
65534;BME280;53640;55.838;37.184;2024-03-07T16:08:22;99483.84;;;1.56;28.71
65534;BME280;53640;55.838;37.184;2024-03-07T16:10:50;99516.84;;;1.73;29.05
65534;BME280;53640;55.838;37.184;2024-03-07T16:13:16;99476.28;;;1.44;29.45
65534;BME280;53640;55.838;37.184;2024-03-07T16:15:45;99519.44;;;1.65;29.38